createdAt,value
2017-03-22T00:00:32.347Z,95.8
2017-03-22T00:01:34.692Z,95.8
2017-03-22T00:02:37.408Z,95.8
2017-03-22T00:03:40.297Z,95.8
2017-03-22T00:04:42.647Z,95.8
2017-03-22T00:05:45.498Z,95.8
2017-03-22T00:06:47.708Z,95.8
2017-03-22T00:07:50.430Z,95.8
2017-03-22T00:08:53.404Z,95.8
2017-03-22T00:09:55.758Z,95.8
2017-03-22T00:10:58.110Z,95.8
2017-03-22T00:12:00.963Z,95.8
2017-03-22T00:13:03.320Z,95.8
2017-03-22T00:14:06.424Z,95.8
2017-03-22T00:15:08.772Z,95.8
2017-03-22T00:16:11.117Z,95.8
2017-03-22T00:17:13.970Z,95.8
2017-03-22T00:18:16.324Z,95.8
2017-03-22T00:19:19.433Z,95.8
2017-03-22T00:20:21.783Z,95.8
2017-03-22T00:21:24.000Z,95.8
2017-03-22T00:22:26.714Z,95.8
2017-03-22T00:23:29.433Z,95.8
2017-03-22T00:24:32.567Z,95.9
2017-03-22T00:25:34.910Z,95.9
2017-03-22T00:27:40.169Z,95.8
2017-03-22T00:28:42.253Z,95.8
2017-03-22T00:29:45.408Z,95.8
2017-03-22T00:30:47.755Z,95.9
2017-03-22T00:31:50.336Z,95.9
2017-03-22T00:32:53.059Z,95.9
2017-03-22T00:33:55.415Z,95.9
2017-03-22T00:34:58.573Z,95.9
2017-03-22T00:36:00.790Z,95.9
2017-03-22T00:37:03.145Z,95.9
2017-03-22T00:38:06.001Z,95.9
2017-03-22T00:39:08.392Z,95.9
2017-03-22T00:40:11.497Z,95.9
2017-03-22T00:41:13.842Z,95.9
2017-03-22T00:42:16.560Z,95.9
2017-03-22T00:43:18.905Z,95.9
2017-03-22T00:44:21.760Z,95.9
2017-03-22T00:45:24.277Z,95.9
2017-03-22T00:46:26.994Z,95.9
2017-03-22T00:47:29.377Z,95.9
2017-03-22T00:48:32.235Z,95.9
2017-03-22T00:49:34.452Z,95.9
2017-03-22T00:50:37.604Z,95.9
2017-03-22T00:51:39.953Z,95.9
2017-03-22T00:52:42.167Z,95.9
2017-03-22T00:53:45.022Z,95.9
2017-03-22T00:54:47.423Z,95.9
2017-03-22T00:55:50.585Z,95.9
2017-03-22T00:56:52.935Z,95.9
2017-03-22T00:57:55.285Z,95.9
2017-03-22T00:58:58.137Z,96
2017-03-22T01:00:00.493Z,96
2017-03-22T01:01:03.646Z,96
2017-03-22T01:02:05.903Z,96
2017-03-22T01:03:08.251Z,95.9
2017-03-22T01:04:11.103Z,96
2017-03-22T01:05:13.452Z,96
2017-03-22T01:06:16.475Z,96
2017-03-22T01:07:18.824Z,96
2017-03-22T01:08:21.173Z,96
2017-03-22T01:09:24.029Z,96
2017-03-22T01:10:26.378Z,96
2017-03-22T01:11:29.530Z,96
2017-03-22T01:12:31.877Z,96
2017-03-22T01:13:33.962Z,96
2017-03-22T01:14:36.860Z,96
2017-03-22T01:15:39.712Z,96
2017-03-22T01:16:42.258Z,96
2017-03-22T01:17:44.474Z,96
2017-03-22T01:18:47.328Z,96
2017-03-22T01:19:49.735Z,96
2017-03-22T01:20:52.587Z,95.9
2017-03-22T01:21:55.250Z,96
2017-03-22T01:22:57.604Z,96
2017-03-22T01:23:59.956Z,96
2017-03-22T01:25:02.669Z,96
2017-03-22T01:26:05.389Z,95.9
2017-03-22T01:27:07.986Z,95.9
2017-03-22T01:28:10.201Z,95.9
2017-03-22T01:29:13.056Z,96
2017-03-22T01:30:15.911Z,96
2017-03-22T01:31:18.261Z,95.9
2017-03-22T01:32:21.409Z,95.9
2017-03-22T01:33:23.257Z,95.9
2017-03-22T01:34:26.120Z,95.9
2017-03-22T01:35:28.473Z,95.9
2017-03-22T01:36:31.320Z,95.9
2017-03-22T01:37:34.343Z,95.9
2017-03-22T01:38:36.757Z,95.9
2017-03-22T01:39:39.107Z,95.9
2017-03-22T01:40:41.461Z,95.9
2017-03-22T01:41:44.371Z,95.9
2017-03-22T01:42:47.030Z,95.9
2017-03-22T01:43:49.385Z,95.9
2017-03-22T01:44:51.742Z,95.9
2017-03-22T01:46:57.010Z,95.9
2017-03-22T01:48:00.117Z,95.9
2017-03-22T01:49:01.959Z,95.9
2017-03-22T01:50:04.817Z,95.9
2017-03-22T01:51:07.166Z,95.9
2017-03-22T01:52:10.019Z,95.9
2017-03-22T01:53:12.674Z,95.9
2017-03-22T01:54:15.026Z,95.9
2017-03-22T01:55:17.883Z,95.9
2017-03-22T01:56:20.232Z,95.9
2017-03-22T01:57:22.825Z,95.9
2017-03-22T01:58:25.426Z,95.9
2017-03-22T01:59:27.784Z,95.9
2017-03-22T02:00:30.636Z,95.9
2017-03-22T02:01:32.979Z,95.9
2017-03-22T02:02:35.696Z,95.9
2017-03-22T02:03:38.713Z,95.9
2017-03-22T02:04:41.064Z,95.9
2017-03-22T02:05:43.413Z,95.9
2017-03-22T02:06:46.263Z,95.9
2017-03-22T02:07:48.492Z,95.9
2017-03-22T02:08:51.599Z,95.9
2017-03-22T02:09:53.962Z,95.9
2017-03-22T02:10:56.325Z,95.9
2017-03-22T02:11:58.677Z,95.9
2017-03-22T02:13:01.530Z,95.9
2017-03-22T02:14:04.184Z,95.9
2017-03-22T02:15:06.400Z,95.9
2017-03-22T02:16:09.250Z,95.9
2017-03-22T02:17:11.600Z,95.9
2017-03-22T02:18:14.459Z,95.9
2017-03-22T02:19:17.107Z,95.9
2017-03-22T02:20:19.458Z,95.9
2017-03-22T02:21:22.304Z,95.9
2017-03-22T02:22:24.647Z,95.9
2017-03-22T02:23:26.998Z,95.9
2017-03-22T02:25:32.508Z,95.9
2017-03-22T02:26:34.859Z,95.9
2017-03-22T02:27:37.710Z,95.9
2017-03-22T02:28:40.060Z,95.9
2017-03-22T02:29:42.779Z,95.9
2017-03-22T02:30:45.433Z,95.9
2017-03-22T02:31:47.644Z,95.9
2017-03-22T02:32:50.495Z,95.9
2017-03-22T02:33:53.214Z,95.9
2017-03-22T02:34:55.571Z,95.9
2017-03-22T02:35:58.176Z,95.9
2017-03-22T02:37:00.393Z,95.9
2017-03-22T02:38:03.246Z,95.9
2017-03-22T02:39:05.596Z,95.9
2017-03-22T02:40:08.517Z,95.9
2017-03-22T02:41:11.118Z,95.9
2017-03-22T02:42:13.466Z,95.9
2017-03-22T02:43:16.189Z,95.9
2017-03-22T02:44:18.909Z,95.9
2017-03-22T02:45:21.266Z,95.9
2017-03-22T02:46:23.868Z,95.9
2017-03-22T02:47:26.214Z,95.9
2017-03-22T02:48:28.933Z,95.9
2017-03-22T02:49:31.517Z,95.9
2017-03-22T02:50:33.933Z,95.9
2017-03-22T02:51:37.086Z,95.9
2017-03-22T02:52:39.297Z,95.9
2017-03-22T02:53:41.648Z,95.9
2017-03-22T02:54:44.503Z,95.9
2017-03-22T02:55:46.855Z,95.9
2017-03-22T02:56:49.963Z,95.9
2017-03-22T02:57:52.312Z,95.9
2017-03-22T02:58:54.664Z,95.9
2017-03-22T02:59:57.519Z,95.9
2017-03-22T03:00:59.741Z,95.9
2017-03-22T03:02:02.896Z,95.9
2017-03-22T03:03:05.113Z,95.8
2017-03-22T03:04:07.463Z,95.8
2017-03-22T03:05:10.318Z,95.9
2017-03-22T03:06:12.672Z,95.9
2017-03-22T03:08:18.251Z,95.9
2017-03-22T03:09:20.609Z,95.9
2017-03-22T03:10:22.965Z,95.9
2017-03-22T03:11:25.685Z,95.9
2017-03-22T03:12:28.034Z,95.9
2017-03-22T03:13:30.925Z,95.9
2017-03-22T03:14:33.273Z,95.9
2017-03-22T03:15:35.619Z,95.9
2017-03-22T03:16:38.336Z,95.9
2017-03-22T03:17:41.061Z,95.9
2017-03-22T03:18:43.717Z,95.9
2017-03-22T03:19:46.066Z,95.9
2017-03-22T03:20:48.919Z,95.9
2017-03-22T03:21:51.267Z,95.9
2017-03-22T03:22:53.616Z,95.9
2017-03-22T03:23:56.784Z,95.9
2017-03-22T03:24:59.130Z,95.9
2017-03-22T03:26:01.494Z,95.9
2017-03-22T03:27:04.345Z,95.9
2017-03-22T03:28:06.564Z,95.9
2017-03-22T03:29:09.721Z,95.9
2017-03-22T03:30:11.806Z,95.9
2017-03-22T03:31:14.522Z,95.9
2017-03-22T03:32:16.862Z,95.9
2017-03-22T03:33:19.278Z,95.9
2017-03-22T03:34:22.425Z,95.9
2017-03-22T03:35:24.634Z,95.9
2017-03-22T03:36:28.042Z,95.9
2017-03-22T03:37:29.880Z,95.9
2017-03-22T03:38:32.226Z,95.9
2017-03-22T03:39:35.373Z,95.9
2017-03-22T03:40:37.576Z,95.9
2017-03-22T03:41:39.911Z,95.9
2017-03-22T03:42:42.488Z,95.9
2017-03-22T03:43:45.334Z,95.9
2017-03-22T03:44:47.977Z,95.9
2017-03-22T03:45:50.177Z,95.9
2017-03-22T03:46:52.882Z,95.9
2017-03-22T03:47:55.727Z,95.9
2017-03-22T03:48:58.068Z,95.9
2017-03-22T03:50:01.223Z,95.9
2017-03-22T03:51:03.438Z,95.9
2017-03-22T03:52:05.775Z,95.9
2017-03-22T03:53:08.624Z,95.9
2017-03-22T03:54:10.964Z,95.9
2017-03-22T03:55:13.561Z,95.9
2017-03-22T03:56:15.902Z,95.9
2017-03-22T03:57:18.808Z,95.9
2017-03-22T03:58:21.155Z,95.9
2017-03-22T03:59:23.867Z,95.9
2017-03-22T04:00:26.515Z,95.9
2017-03-22T04:01:28.871Z,95.9
2017-03-22T04:02:31.718Z,95.9
2017-03-22T04:03:34.118Z,95.9
2017-03-22T04:04:36.453Z,95.9
2017-03-22T04:05:39.417Z,95.9
2017-03-22T04:06:41.759Z,95.9
2017-03-22T04:07:44.615Z,95.9
2017-03-22T04:08:46.978Z,95.9
2017-03-22T04:09:49.327Z,95.9
2017-03-22T04:10:52.473Z,95.9
2017-03-22T04:11:54.819Z,95.9
2017-03-22T04:12:57.031Z,95.9
2017-03-22T04:13:59.876Z,95.9
2017-03-22T04:15:02.596Z,95.9
2017-03-22T04:16:05.245Z,95.9
2017-03-22T04:17:07.498Z,95.9
2017-03-22T04:18:09.841Z,95.9
2017-03-22T04:19:12.699Z,95.9
2017-03-22T04:20:15.042Z,95.9
2017-03-22T04:21:18.141Z,95.9
2017-03-22T04:22:20.484Z,95.9
2017-03-22T04:23:22.825Z,95.9
2017-03-22T04:24:25.403Z,95.9
2017-03-22T04:25:28.262Z,95.9
2017-03-22T04:26:30.907Z,95.9
2017-03-22T04:27:33.263Z,95.9
2017-03-22T04:28:35.979Z,95.9
2017-03-22T04:29:38.185Z,95.9
2017-03-22T04:30:41.027Z,95.9
2017-03-22T04:31:43.615Z,95.9
2017-03-22T04:32:45.957Z,95.9
2017-03-22T04:33:48.809Z,95.9
2017-03-22T04:34:51.150Z,95.9
2017-03-22T04:35:53.492Z,95.9
2017-03-22T04:37:59.045Z,95.9
2017-03-22T04:39:01.390Z,95.9
2017-03-22T04:40:04.231Z,95.9
2017-03-22T04:41:06.568Z,95.9
2017-03-22T04:42:08.913Z,95.9
2017-03-22T04:43:12.012Z,95.9
2017-03-22T04:44:14.226Z,95.9
2017-03-22T04:45:16.938Z,95.9
2017-03-22T04:46:19.285Z,95.9
2017-03-22T04:47:22.128Z,95.9
2017-03-22T04:48:24.730Z,95.9
2017-03-22T04:49:27.076Z,95.9
2017-03-22T04:50:29.919Z,95.9
2017-03-22T04:51:32.254Z,95.9
2017-03-22T04:52:34.594Z,95.9
2017-03-22T04:53:37.705Z,95.9
2017-03-22T04:54:40.609Z,95.9
2017-03-22T04:55:42.451Z,95.9
2017-03-22T04:56:45.161Z,95.9
2017-03-22T04:57:47.504Z,95.9
2017-03-22T04:58:50.602Z,95.9
2017-03-22T04:59:52.942Z,95.9
2017-03-22T05:00:55.282Z,95.9
2017-03-22T05:01:58.129Z,95.9
2017-03-22T05:03:00.465Z,95.9
2017-03-22T05:04:03.069Z,95.9
2017-03-22T05:05:05.418Z,95.9
2017-03-22T05:06:08.262Z,95.9
2017-03-22T05:07:10.607Z,95.9
2017-03-22T05:08:13.451Z,95.9
2017-03-22T05:09:16.047Z,95.9
2017-03-22T05:10:18.388Z,95.9
2017-03-22T05:11:21.243Z,95.9
2017-03-22T05:12:23.590Z,95.9
2017-03-22T05:13:25.938Z,95.9
2017-03-22T05:14:29.042Z,95.9
2017-03-22T05:15:31.384Z,95.9
2017-03-22T05:16:33.783Z,95.9
2017-03-22T05:17:36.495Z,95.9
2017-03-22T05:18:39.211Z,95.9
2017-03-22T05:19:41.803Z,95.9
2017-03-22T05:20:44.017Z,95.9
2017-03-22T05:21:46.862Z,95.9
2017-03-22T05:22:49.211Z,95.9
2017-03-22T05:23:51.609Z,95.9
2017-03-22T05:24:54.704Z,95.9
2017-03-22T05:28:01.859Z,96
2017-03-22T05:29:04.565Z,96
2017-03-22T05:30:07.534Z,96
2017-03-22T05:32:12.290Z,96
2017-03-22T05:33:14.499Z,96
2017-03-22T05:34:17.526Z,96
2017-03-22T05:35:20.538Z,96
2017-03-22T05:36:22.372Z,96
2017-03-22T05:37:24.951Z,96
2017-03-22T05:38:27.803Z,96
2017-03-22T05:39:30.146Z,96
2017-03-22T05:40:33.104Z,96
2017-03-22T05:41:35.447Z,96
2017-03-22T05:42:37.786Z,96
2017-03-22T05:43:40.635Z,96
2017-03-22T05:44:42.975Z,96
2017-03-22T05:45:46.103Z,96
2017-03-22T05:46:48.311Z,96
2017-03-22T05:47:50.745Z,96
2017-03-22T05:48:53.086Z,96
2017-03-22T05:49:55.938Z,96
2017-03-22T05:50:58.532Z,96
2017-03-22T05:52:01.434Z,96
2017-03-22T05:53:03.780Z,96
2017-03-22T05:54:06.123Z,96.1
2017-03-22T05:55:08.337Z,96.1
2017-03-22T05:56:11.487Z,96.1
2017-03-22T05:57:13.834Z,96.1
2017-03-22T05:58:16.545Z,96.1
2017-03-22T05:59:18.755Z,96.1
2017-03-22T06:00:22.170Z,96.1
2017-03-22T06:01:24.260Z,96.1
2017-03-22T06:02:27.166Z,96.1
2017-03-22T06:03:29.375Z,96.1
2017-03-22T06:04:31.716Z,96.1
2017-03-22T06:05:33.919Z,96
2017-03-22T06:06:37.010Z,96
2017-03-22T06:07:39.217Z,96
2017-03-22T06:08:42.069Z,96
2017-03-22T06:09:44.416Z,96
2017-03-22T06:10:47.126Z,96
2017-03-22T06:11:50.093Z,96
2017-03-22T06:12:52.433Z,96
2017-03-22T06:13:54.639Z,96
2017-03-22T06:14:57.483Z,96
2017-03-22T06:15:59.883Z,95.9
2017-03-22T06:17:02.842Z,95.9
2017-03-22T06:18:05.049Z,95.9
2017-03-22T06:19:07.764Z,95.9
2017-03-22T06:20:10.103Z,95.9
2017-03-22T06:21:12.812Z,95.9
2017-03-22T06:22:15.957Z,95.9
2017-03-22T06:23:17.793Z,95.9
2017-03-22T06:24:20.644Z,95.8
2017-03-22T06:26:25.899Z,95.8
2017-03-22T06:27:28.358Z,95.8
2017-03-22T06:28:30.701Z,95.8
2017-03-22T06:29:33.407Z,95.8
2017-03-22T06:30:36.256Z,95.9
2017-03-22T06:31:38.599Z,95.9
2017-03-22T06:32:41.192Z,96
2017-03-22T06:33:43.542Z,95.9
2017-03-22T06:34:46.391Z,95.9
2017-03-22T06:35:48.597Z,95.9
2017-03-22T06:36:51.439Z,95.8
2017-03-22T06:37:54.576Z,95.9
2017-03-22T06:38:56.421Z,95.8
2017-03-22T06:39:59.266Z,95.8
2017-03-22T06:41:01.603Z,95.7
2017-03-22T06:42:04.295Z,95.7
2017-03-22T06:43:07.388Z,95.7
2017-03-22T06:44:09.730Z,95.6
2017-03-22T06:45:12.074Z,95.6
2017-03-22T06:46:14.920Z,95.5
2017-03-22T06:47:17.258Z,95.5
2017-03-22T06:48:19.912Z,95.4
2017-03-22T06:49:22.257Z,95.4
2017-03-22T06:50:25.120Z,95.4
2017-03-22T06:51:27.328Z,95.4
2017-03-22T06:52:30.170Z,95.4
2017-03-22T06:53:33.277Z,95.4
2017-03-22T06:54:35.127Z,95.4
2017-03-22T06:55:37.971Z,95.4
2017-03-22T06:56:40.364Z,95.4
2017-03-22T06:57:43.209Z,95.4
2017-03-22T06:58:45.809Z,95.4
2017-03-22T07:00:51.060Z,95.5
2017-03-22T07:01:53.470Z,95.5
2017-03-22T07:02:56.182Z,95.4
2017-03-22T07:03:58.778Z,95.4
2017-03-22T07:05:01.118Z,95.3
2017-03-22T07:06:04.001Z,95.3
2017-03-22T07:07:06.405Z,95.3
2017-03-22T07:08:08.749Z,95.3
2017-03-22T07:09:11.844Z,95.2
2017-03-22T07:10:14.054Z,95.2
2017-03-22T07:11:16.904Z,95.2
2017-03-22T07:12:19.250Z,95.2
2017-03-22T07:13:21.961Z,95.2
2017-03-22T07:14:24.557Z,95.2
2017-03-22T07:15:27.270Z,95.1
2017-03-22T07:16:29.608Z,95.1
2017-03-22T07:17:32.456Z,95.1
2017-03-22T07:18:34.794Z,95.1
2017-03-22T07:19:37.892Z,95.1
2017-03-22T07:20:40.105Z,95.1
2017-03-22T07:21:42.679Z,95.1
2017-03-22T07:22:45.388Z,95.1
2017-03-22T07:23:47.743Z,95.1
2017-03-22T07:24:50.844Z,95.1
2017-03-22T07:25:53.183Z,95.1
2017-03-22T07:26:55.520Z,95.1
2017-03-22T07:27:57.873Z,95.1
2017-03-22T07:29:00.717Z,95.1
2017-03-22T07:30:03.308Z,95.1
2017-03-22T07:30:33.443Z,95.1
2017-03-22T07:31:05.959Z,95.1
2017-03-22T07:32:08.667Z,95.1
2017-03-22T07:32:39.312Z,95.1
2017-03-22T07:33:10.956Z,95.1
2017-03-22T07:34:13.804Z,95.1
2017-03-22T07:35:17.013Z,95
2017-03-22T07:36:18.850Z,95
2017-03-22T07:37:21.200Z,95
2017-03-22T07:38:24.059Z,95
2017-03-22T07:39:26.403Z,95
2017-03-22T07:40:29.549Z,95
2017-03-22T07:41:31.885Z,94.9
2017-03-22T07:42:34.222Z,94.9
2017-03-22T07:43:36.933Z,94.9
2017-03-22T07:44:39.709Z,94.8
2017-03-22T07:45:42.298Z,94.8
2017-03-22T07:46:44.508Z,94.8
2017-03-22T07:47:47.354Z,94.8
2017-03-22T07:48:49.701Z,94.7
2017-03-22T07:49:52.550Z,94.7
2017-03-22T07:50:55.194Z,94.7
2017-03-22T07:51:57.536Z,94.7
2017-03-22T07:53:00.386Z,94.6
2017-03-22T07:54:02.731Z,94.6
2017-03-22T07:56:08.289Z,94.5
2017-03-22T07:57:10.629Z,94.5
2017-03-22T07:58:13.474Z,94.5
2017-03-22T07:59:15.820Z,94.5
2017-03-22T08:00:18.670Z,94.5
2017-03-22T08:01:21.129Z,94.5
2017-03-22T08:02:23.470Z,94.5
2017-03-22T08:03:26.313Z,94.5
2017-03-22T08:04:28.652Z,94.4
2017-03-22T08:05:31.406Z,94.4
2017-03-22T08:06:34.418Z,94.4
2017-03-22T08:07:36.763Z,94.4
2017-03-22T08:08:39.108Z,94.3
2017-03-22T08:09:41.691Z,94.3
2017-03-22T08:10:44.538Z,94.3
2017-03-22T08:11:47.131Z,94.2
2017-03-22T08:12:49.341Z,94.2
2017-03-22T08:13:52.197Z,94.2
2017-03-22T08:14:55.053Z,94.2
2017-03-22T08:15:57.395Z,94.1
2017-03-22T08:17:01.062Z,94.1
2017-03-22T08:18:02.402Z,94
2017-03-22T08:20:08.028Z,93.9
2017-03-22T08:21:10.233Z,93.9
2017-03-22T08:22:13.326Z,93.9
2017-03-22T08:23:15.664Z,93.8
2017-03-22T08:24:18.005Z,93.8
2017-03-22T08:25:20.858Z,93.7
2017-03-22T08:26:23.564Z,93.7
2017-03-22T08:27:26.152Z,93.6
2017-03-22T08:28:28.490Z,93.5
2017-03-22T08:29:31.337Z,93.4
2017-03-22T08:30:34.045Z,93.3
2017-03-22T08:31:36.392Z,93.3
2017-03-22T08:32:39.486Z,93.2
2017-03-22T08:33:41.831Z,93.2
2017-03-22T08:34:12.465Z,93.2
2017-03-22T08:34:44.102Z,93.2
2017-03-22T08:35:46.813Z,93.1
2017-03-22T08:36:49.525Z,93
2017-03-22T08:37:52.535Z,92.9
2017-03-22T08:38:54.740Z,92.7
2017-03-22T08:39:57.459Z,92.6
2017-03-22T08:41:00.041Z,92.4
2017-03-22T08:42:02.890Z,92.3
2017-03-22T08:43:05.481Z,92
2017-03-22T08:44:07.819Z,91.5
2017-03-22T08:45:10.663Z,90.7
2017-03-22T08:46:13.007Z,89.6
2017-03-22T08:47:15.861Z,88.5
2017-03-22T08:48:18.505Z,87.6
2017-03-22T08:49:20.841Z,86.8
2017-03-22T08:50:23.681Z,86.1
2017-03-22T08:51:26.389Z,85.4
2017-03-22T08:52:28.730Z,85
2017-03-22T08:53:31.882Z,84.9
2017-03-22T08:54:34.095Z,85
2017-03-22T08:55:36.674Z,85.1
2017-03-22T08:56:39.384Z,85.1
2017-03-22T08:57:42.227Z,85.4
2017-03-22T08:58:45.321Z,86
2017-03-22T09:00:50.068Z,87.1
2017-03-22T09:01:52.923Z,87.7
2017-03-22T09:02:55.782Z,88.2
2017-03-22T09:03:58.375Z,88.7
2017-03-22T09:05:00.717Z,89.1
2017-03-22T09:06:03.437Z,89.4
2017-03-22T09:07:06.145Z,89.6
2017-03-22T09:08:08.981Z,89.8
2017-03-22T09:09:11.856Z,90
2017-03-22T09:10:14.198Z,90.2
2017-03-22T09:11:16.402Z,90.3
2017-03-22T09:12:19.620Z,90.5
2017-03-22T09:13:21.849Z,90.7
2017-03-22T09:14:24.939Z,90.9
2017-03-22T09:15:27.279Z,91.2
2017-03-22T09:16:30.129Z,91.3
2017-03-22T09:17:32.836Z,91.5
2017-03-22T09:18:35.174Z,91.6
2017-03-22T09:19:38.266Z,91.7
2017-03-22T09:20:40.605Z,91.8
2017-03-22T09:21:43.316Z,92
2017-03-22T09:22:45.659Z,92.1
2017-03-22T09:23:49.080Z,92.1
2017-03-22T09:24:51.167Z,92.2
2017-03-22T09:25:53.877Z,92.3
2017-03-22T09:26:56.224Z,92.3
2017-03-22T09:27:59.073Z,92.4
2017-03-22T09:29:01.921Z,92.4
2017-03-22T09:30:04.374Z,92.5
2017-03-22T09:31:07.079Z,92.5
2017-03-22T09:32:09.421Z,92.6
2017-03-22T09:33:12.268Z,92.6
2017-03-22T09:34:14.981Z,92.6
2017-03-22T09:35:17.575Z,92.6
2017-03-22T09:36:19.786Z,92.7
2017-03-22T09:37:22.630Z,92.7
2017-03-22T09:38:25.342Z,92.8
2017-03-22T09:39:28.195Z,92.8
2017-03-22T09:40:30.790Z,92.7
2017-03-22T09:41:33.127Z,92.7
2017-03-22T09:42:35.703Z,92.7
2017-03-22T09:43:38.409Z,92.7
2017-03-22T09:44:41.250Z,92.6
2017-03-22T09:45:44.211Z,92.5
2017-03-22T09:46:46.549Z,92.5
2017-03-22T09:47:49.393Z,92.5
2017-03-22T09:48:51.730Z,92.5
2017-03-22T09:49:54.573Z,92.5
2017-03-22T09:50:57.166Z,92.5
2017-03-22T09:51:59.874Z,92.4
2017-03-22T09:52:34.023Z,92.4
2017-03-22T09:54:05.048Z,92.4
2017-03-22T09:55:07.891Z,92.4
2017-03-22T09:56:10.485Z,92.4
2017-03-22T09:57:13.060Z,92.4
2017-03-22T09:58:15.775Z,92.4
2017-03-22T09:59:18.349Z,92.4
2017-03-22T10:00:20.554Z,92.5
2017-03-22T10:01:23.647Z,92.5
2017-03-22T10:02:26.363Z,92.4
2017-03-22T10:03:28.699Z,92.4
2017-03-22T10:04:31.540Z,92.3
2017-03-22T10:05:34.110Z,92.3
2017-03-22T10:06:37.069Z,92.3
2017-03-22T10:07:39.139Z,92.4
2017-03-22T10:08:42.211Z,92.4
2017-03-22T10:09:44.416Z,92.4
2017-03-22T10:10:47.256Z,92.4
2017-03-22T10:11:50.399Z,92.4
2017-03-22T10:12:52.738Z,92.4
2017-03-22T10:13:55.448Z,92.4
2017-03-22T10:14:57.648Z,92.3
2017-03-22T10:16:00.494Z,92.3
2017-03-22T10:17:03.638Z,92.3
2017-03-22T10:18:05.842Z,92.3
2017-03-22T10:19:08.551Z,92.3
2017-03-22T10:20:10.889Z,92.3
2017-03-22T10:21:13.733Z,92.2
2017-03-22T10:22:16.881Z,92.2
2017-03-22T10:23:19.087Z,92.2
2017-03-22T10:24:21.295Z,92.2
2017-03-22T10:25:24.137Z,92.2
2017-03-22T10:26:26.847Z,92.2
2017-03-22T10:27:29.810Z,92.2
2017-03-22T10:28:32.025Z,92.2
2017-03-22T10:29:34.619Z,92.2
2017-03-22T10:30:37.463Z,92.2
2017-03-22T10:31:40.300Z,92.2
2017-03-22T10:32:42.894Z,92.2
2017-03-22T10:33:45.737Z,92.2
2017-03-22T10:34:48.077Z,92.3
2017-03-22T10:35:50.919Z,92.2
2017-03-22T10:36:53.259Z,92.3
2017-03-22T10:37:56.220Z,92.3
2017-03-22T10:38:58.559Z,92.3
2017-03-22T10:40:01.403Z,92.3
2017-03-22T10:41:04.128Z,92.3
2017-03-22T10:42:06.476Z,92.3
2017-03-22T10:43:09.573Z,92.3
2017-03-22T10:44:11.779Z,92.3
2017-03-22T10:45:14.620Z,92.3
2017-03-22T10:46:17.331Z,92.3
2017-03-22T10:47:19.720Z,92.3
2017-03-22T10:48:22.819Z,92.3
2017-03-22T10:49:25.020Z,92.3
2017-03-22T10:50:27.859Z,92.3
2017-03-22T10:51:30.704Z,92.3
2017-03-22T10:52:33.047Z,92.3
2017-03-22T10:53:15.256Z,92.3
2017-03-22T10:54:38.851Z,92.3
2017-03-22T10:55:41.055Z,92.2
2017-03-22T10:56:43.896Z,92.2
2017-03-22T10:57:46.239Z,92.2
2017-03-22T10:58:49.084Z,92.2
2017-03-22T10:59:51.538Z,92.2
2017-03-22T11:00:54.112Z,92.2
2017-03-22T11:01:56.957Z,92.1
2017-03-22T11:02:59.664Z,92.1
2017-03-22T11:04:02.370Z,92.1
2017-03-22T11:05:05.057Z,92.1
2017-03-22T11:06:07.764Z,92
2017-03-22T11:07:09.966Z,92.1
2017-03-22T11:08:12.809Z,92.1
2017-03-22T11:09:15.650Z,92.2
2017-03-22T11:10:18.242Z,92.2
2017-03-22T11:11:20.950Z,92.1
2017-03-22T11:12:23.154Z,92.1
2017-03-22T11:13:25.994Z,92
2017-03-22T11:14:28.838Z,92
2017-03-22T11:15:31.432Z,92
2017-03-22T11:16:34.274Z,92
2017-03-22T11:17:36.613Z,92
2017-03-22T11:18:39.325Z,91.9
2017-03-22T11:19:42.031Z,91.9
2017-03-22T11:20:45.176Z,91.9
2017-03-22T11:21:47.518Z,91.9
2017-03-22T11:22:49.851Z,91.9
2017-03-22T11:23:52.562Z,91.9
2017-03-22T11:24:55.410Z,91.9
2017-03-22T11:25:58.002Z,91.9
2017-03-22T11:27:00.208Z,91.9
2017-03-22T11:28:03.049Z,91.9
2017-03-22T11:29:05.486Z,91.8
2017-03-22T11:30:08.328Z,91.8
2017-03-22T11:31:11.423Z,91.8
2017-03-22T11:32:13.628Z,91.8
2017-03-22T11:33:16.476Z,91.9
2017-03-22T11:34:19.183Z,91.9
2017-03-22T11:35:21.524Z,91.9
2017-03-22T11:36:24.668Z,91.9
2017-03-22T11:37:26.874Z,91.9
2017-03-22T11:38:29.583Z,91.9
2017-03-22T11:39:32.292Z,91.9
2017-03-22T11:40:34.999Z,91.9
2017-03-22T11:41:38.095Z,91.9
2017-03-22T11:42:40.300Z,91.9
2017-03-22T11:43:43.148Z,91.9
2017-03-22T11:44:45.491Z,91.8
2017-03-22T11:45:48.329Z,91.9
2017-03-22T11:46:51.295Z,91.9
2017-03-22T11:47:53.868Z,91.9
2017-03-22T11:48:56.067Z,92
2017-03-22T11:49:58.914Z,92
2017-03-22T11:51:02.312Z,92.1
2017-03-22T11:52:04.318Z,92.1
2017-03-22T11:53:06.534Z,92.2
2017-03-22T11:54:09.418Z,92.2
2017-03-22T11:55:12.256Z,92.2
2017-03-22T11:56:15.101Z,92.2
2017-03-22T11:57:17.699Z,92.3
2017-03-22T11:58:20.042Z,92.3
2017-03-22T11:59:22.751Z,92.4
2017-03-22T12:00:25.330Z,92.4
2017-03-22T12:01:28.172Z,92.4
2017-03-22T12:02:30.679Z,92.4
2017-03-22T12:03:33.385Z,92.4
2017-03-22T12:04:04.015Z,92.4
2017-03-22T12:04:36.186Z,92.4
2017-03-22T12:05:06.419Z,92.4
2017-03-22T12:06:41.139Z,92.4
2017-03-22T12:07:44.232Z,92.4
2017-03-22T12:08:46.576Z,92.5
2017-03-22T12:09:49.417Z,92.5
2017-03-22T12:10:51.622Z,92.5
2017-03-22T12:11:54.467Z,92.5
2017-03-22T12:12:57.569Z,92.6
2017-03-22T12:13:59.910Z,92.5
2017-03-22T12:15:02.754Z,92.5
2017-03-22T12:16:05.327Z,92.4
2017-03-22T12:17:08.040Z,92.4
2017-03-22T12:18:10.494Z,92.4
2017-03-22T12:19:13.340Z,92.3
2017-03-22T12:21:18.589Z,92.3
2017-03-22T12:22:20.933Z,92.2
2017-03-22T12:23:24.025Z,92.2
2017-03-22T12:24:26.361Z,92.2
2017-03-22T12:25:29.208Z,92.1
2017-03-22T12:26:31.546Z,92.1
2017-03-22T12:27:34.253Z,92
2017-03-22T12:28:37.917Z,92
2017-03-22T12:29:39.791Z,92
2017-03-22T12:30:42.501Z,91.9
2017-03-22T12:31:44.842Z,91.9
2017-03-22T12:32:47.691Z,91.9
2017-03-22T12:33:50.651Z,91.9
2017-03-22T12:34:52.989Z,91.9
2017-03-22T12:35:55.698Z,91.9
2017-03-22T12:36:57.903Z,91.8
2017-03-22T12:38:00.748Z,91.8
2017-03-22T12:39:03.840Z,91.8
2017-03-22T12:40:05.909Z,91.7
2017-03-22T12:41:08.757Z,91.7
2017-03-22T12:42:11.466Z,91.7
2017-03-22T12:43:14.173Z,91.7
2017-03-22T12:45:19.671Z,91.8
2017-03-22T12:46:22.377Z,91.8
2017-03-22T12:47:24.584Z,91.8
2017-03-22T12:48:27.422Z,91.8
2017-03-22T12:49:30.261Z,91.9
2017-03-22T12:50:32.852Z,91.9
2017-03-22T12:51:35.694Z,91.9
2017-03-22T12:52:37.897Z,92
2017-03-22T12:53:40.606Z,92
2017-03-22T12:54:43.315Z,92
2017-03-22T12:55:46.280Z,92
2017-03-22T12:56:48.618Z,92
2017-03-22T12:57:51.326Z,91.9
2017-03-22T12:58:54.031Z,91.9
2017-03-22T12:59:56.870Z,91.9
2017-03-22T13:00:59.699Z,91.8
2017-03-22T13:02:02.042Z,91.8
2017-03-22T13:03:04.885Z,91.7
2017-03-22T13:04:07.221Z,91.7
2017-03-22T13:05:09.804Z,91.6
2017-03-22T13:06:12.903Z,91.6
2017-03-22T13:08:18.014Z,91.6
2017-03-22T13:09:20.854Z,91.6
2017-03-22T13:10:23.194Z,91.6
2017-03-22T13:11:26.289Z,91.6
2017-03-22T13:12:28.630Z,91.6
2017-03-22T13:13:31.473Z,91.6
2017-03-22T13:14:33.811Z,91.7
2017-03-22T13:15:36.521Z,91.7
2017-03-22T13:16:39.666Z,91.7
2017-03-22T13:17:41.873Z,91.7
2017-03-22T13:18:44.582Z,91.7
2017-03-22T13:19:47.425Z,91.6
2017-03-22T13:20:49.766Z,91.6
2017-03-22T13:21:52.730Z,91.6
2017-03-22T13:22:55.072Z,91.6
2017-03-22T13:23:57.787Z,91.6
2017-03-22T13:25:00.501Z,91.6
2017-03-22T13:26:03.348Z,91.6
2017-03-22T13:27:05.942Z,91.6
2017-03-22T13:28:08.782Z,91.6
2017-03-22T13:29:11.127Z,91.6
2017-03-22T13:30:13.969Z,91.6
2017-03-22T13:31:16.678Z,91.5
2017-03-22T13:32:19.504Z,91.5
2017-03-22T13:33:21.843Z,91.5
2017-03-22T13:34:24.693Z,91.5
2017-03-22T13:35:27.034Z,91.5
2017-03-22T13:36:29.879Z,91.5
2017-03-22T13:37:32.973Z,91.5
2017-03-22T13:38:35.047Z,91.4
2017-03-22T13:39:05.684Z,91.4
2017-03-22T13:39:37.828Z,91.4
2017-03-22T13:40:08.325Z,91.4
2017-03-22T13:41:43.249Z,91.4
2017-03-22T13:42:46.347Z,91.4
2017-03-22T13:43:48.686Z,91.4
2017-03-22T13:44:50.893Z,91.4
2017-03-22T13:45:53.733Z,91.4
2017-03-22T13:46:56.581Z,91.4
2017-03-22T13:47:59.673Z,91.4
2017-03-22T13:49:01.880Z,91.5
2017-03-22T13:50:04.720Z,91.5
2017-03-22T13:51:06.925Z,91.5
2017-03-22T13:52:09.762Z,91.6
2017-03-22T13:53:12.895Z,91.6
2017-03-22T13:54:14.966Z,91.6
2017-03-22T13:55:18.046Z,91.6
2017-03-22T13:56:20.256Z,91.7
2017-03-22T13:57:22.970Z,91.7
2017-03-22T13:58:25.795Z,91.7
2017-03-22T13:58:56.293Z,91.7
2017-03-22T13:59:28.405Z,91.7
2017-03-22T14:00:30.987Z,91.7
2017-03-22T14:01:33.568Z,91.7
2017-03-22T14:02:36.407Z,91.7
2017-03-22T14:03:39.501Z,91.7
2017-03-22T14:05:44.250Z,91.7
2017-03-22T14:06:47.098Z,91.7
2017-03-22T14:07:49.940Z,91.7
2017-03-22T14:08:52.396Z,91.7
2017-03-22T14:09:55.240Z,91.7
2017-03-22T14:10:57.443Z,91.7